createdAt,value
2023-04-12T00:01:28.942Z,8.04
2023-04-12T00:03:57.549Z,8.02
2023-04-12T00:06:32.467Z,8.02
2023-04-12T00:09:04.335Z,7.99
2023-04-12T00:11:33.135Z,7.98
2023-04-12T00:14:04.350Z,7.99
2023-04-12T00:16:32.975Z,7.97
2023-04-12T00:19:01.719Z,7.96
2023-04-12T00:21:30.237Z,7.96
2023-04-12T00:23:58.835Z,7.96
2023-04-12T00:26:29.363Z,7.95
2023-04-12T00:29:00.749Z,7.94
2023-04-12T00:31:29.695Z,7.94
2023-04-12T00:33:58.776Z,7.92
2023-04-12T00:36:27.321Z,7.91
2023-04-12T00:38:55.603Z,7.90
2023-04-12T00:41:24.978Z,7.90
2023-04-12T00:43:55.045Z,7.89
2023-04-12T00:46:23.585Z,7.90
2023-04-12T00:48:51.973Z,7.88
2023-04-12T00:51:22.326Z,7.88
2023-04-12T00:53:53.444Z,7.86
2023-04-12T00:56:23.657Z,7.87
2023-04-12T00:58:52.352Z,7.85
2023-04-12T01:01:22.609Z,7.84
2023-04-12T01:03:54.809Z,7.82
2023-04-12T01:06:41.873Z,7.81
2023-04-12T01:09:21.630Z,7.78
2023-04-12T01:12:10.205Z,7.76
2023-04-12T01:14:50.301Z,7.73
2023-04-12T01:17:27.395Z,7.72
2023-04-12T01:20:13.286Z,7.72
2023-04-12T01:23:16.297Z,7.72
2023-04-12T01:26:11.358Z,7.71
2023-04-12T01:28:44.773Z,7.69
2023-04-12T01:31:14.933Z,7.70
2023-04-12T01:33:45.928Z,7.68
2023-04-12T01:36:19.314Z,7.68
2023-04-12T01:38:49.823Z,7.67
2023-04-12T01:41:18.208Z,7.66
2023-04-12T01:43:49.501Z,7.65
2023-04-12T01:46:24.064Z,7.63
2023-04-12T01:48:54.808Z,7.64
2023-04-12T01:51:36.512Z,7.64
2023-04-12T01:54:11.843Z,7.64
2023-04-12T01:56:43.120Z,7.63
2023-04-12T01:59:15.599Z,7.61
2023-04-12T02:01:44.507Z,7.60
2023-04-12T02:04:13.593Z,7.60
2023-04-12T02:06:44.151Z,7.60
2023-04-12T02:09:18.335Z,7.61
2023-04-12T02:11:49.762Z,7.61
2023-04-12T02:14:19.450Z,7.60
2023-04-12T02:16:48.070Z,7.60
2023-04-12T02:19:16.541Z,7.60
2023-04-12T02:21:46.747Z,7.60
2023-04-12T02:24:17.874Z,7.60
2023-04-12T02:26:46.227Z,7.58
2023-04-12T02:29:14.504Z,7.56
2023-04-12T02:31:48.349Z,7.53
2023-04-12T02:34:18.055Z,7.53
2023-04-12T02:36:48.536Z,7.52
2023-04-12T02:39:22.350Z,7.52
2023-04-12T02:41:50.752Z,7.52
2023-04-12T02:44:19.100Z,7.53
2023-04-12T02:46:48.810Z,7.52
2023-04-12T02:49:17.124Z,7.54
2023-04-12T02:51:52.305Z,7.55
2023-04-12T02:54:21.165Z,7.54
2023-04-12T02:56:49.486Z,7.57
2023-04-12T02:59:17.750Z,7.57
2023-04-12T03:01:46.740Z,7.59
2023-04-12T03:04:17.143Z,7.61
2023-04-12T03:06:53.791Z,7.63
2023-04-12T03:09:22.213Z,7.64
2023-04-12T03:11:50.725Z,7.63
2023-04-12T03:14:19.034Z,7.66
2023-04-12T03:16:49.160Z,7.66
2023-04-12T03:19:18.934Z,7.68
2023-04-12T03:21:47.216Z,7.69
2023-04-12T03:24:15.596Z,7.70
2023-04-12T03:26:44.044Z,7.70
2023-04-12T03:29:12.351Z,7.69
2023-04-12T03:31:40.761Z,7.70
2023-04-12T03:34:09.111Z,7.70
2023-04-12T03:36:39.112Z,7.70
2023-04-12T03:39:07.454Z,7.70
2023-04-12T03:41:38.369Z,7.71
2023-04-12T03:44:07.687Z,7.70
2023-04-12T03:46:36.389Z,7.70
2023-04-12T03:49:13.745Z,7.70
2023-04-12T03:51:43.902Z,7.71
2023-04-12T03:54:13.819Z,7.70
2023-04-12T03:56:43.157Z,7.71
2023-04-12T03:59:15.847Z,7.70
2023-04-12T04:01:44.419Z,7.71
2023-04-12T04:04:12.877Z,7.71
2023-04-12T04:06:42.733Z,7.70
2023-04-12T04:09:19.890Z,7.71
2023-04-12T04:11:50.047Z,7.72
2023-04-12T04:14:18.311Z,7.74
2023-04-12T04:16:46.665Z,7.75
2023-04-12T04:19:17.651Z,7.75
2023-04-12T04:21:47.624Z,7.75
2023-04-12T04:24:18.856Z,7.77
2023-04-12T04:26:47.135Z,7.78
2023-04-12T04:29:15.416Z,7.78
2023-04-12T04:31:46.079Z,7.78
2023-04-12T04:34:14.390Z,7.79
2023-04-12T04:36:42.777Z,7.82
2023-04-12T04:39:18.279Z,7.83
2023-04-12T04:41:46.876Z,7.83
2023-04-12T04:44:15.261Z,7.83
2023-04-12T04:46:43.733Z,7.81
2023-04-12T04:49:12.053Z,7.80
2023-04-12T04:51:40.332Z,7.81
2023-04-12T04:54:08.599Z,7.82
2023-04-12T04:56:41.023Z,7.83
2023-04-12T04:59:09.319Z,7.85
2023-04-12T05:01:37.782Z,7.87
2023-04-12T05:04:06.398Z,7.90
2023-04-12T05:06:34.808Z,7.92
2023-04-12T05:09:08.691Z,7.96
2023-04-12T05:11:37.420Z,7.96
2023-04-12T05:14:07.060Z,7.99
2023-04-12T05:16:35.484Z,8.01
2023-04-12T05:19:03.830Z,8.03
2023-04-12T05:21:33.119Z,8.05
2023-04-12T05:24:01.552Z,8.09
2023-04-12T05:26:29.869Z,8.08
2023-04-12T05:29:01.571Z,8.11
2023-04-12T05:31:31.285Z,8.12
2023-04-12T05:33:59.619Z,8.16
2023-04-12T05:36:27.936Z,8.19
2023-04-12T05:38:59.352Z,8.21
2023-04-12T05:41:27.755Z,8.23
2023-04-12T05:43:56.110Z,8.23
2023-04-12T05:46:24.524Z,8.27
2023-04-12T05:48:57.322Z,8.31
2023-04-12T05:51:40.000Z,8.30
2023-04-12T05:54:10.713Z,8.34
2023-04-12T05:56:40.141Z,8.38
2023-04-12T05:59:09.154Z,8.41
2023-04-12T06:01:37.613Z,8.44
2023-04-12T06:04:08.095Z,8.47
2023-04-12T06:06:36.671Z,8.51
2023-04-12T06:09:05.293Z,8.51
2023-04-12T06:11:34.311Z,8.55
2023-04-12T06:14:03.087Z,8.59
2023-04-12T06:16:34.795Z,8.60
2023-04-12T06:19:06.323Z,8.60
2023-04-12T06:21:36.769Z,8.61
2023-04-12T06:24:05.568Z,8.62
2023-04-12T06:26:39.820Z,8.64
2023-04-12T06:29:08.663Z,8.67
2023-04-12T06:31:37.036Z,8.69
2023-04-12T06:34:05.785Z,8.72
2023-04-12T06:36:35.640Z,8.72
2023-04-12T06:39:04.169Z,8.72
2023-04-12T06:41:32.485Z,8.73
2023-04-12T06:44:00.826Z,8.80
2023-04-12T06:46:30.205Z,8.83
2023-04-12T06:49:01.454Z,8.87
2023-04-12T06:51:29.844Z,8.93
2023-04-12T06:53:59.482Z,8.95
2023-04-12T06:56:27.888Z,8.99
2023-04-12T06:59:00.190Z,9.04
2023-04-12T07:01:28.848Z,9.11
2023-04-12T07:03:57.363Z,9.16
2023-04-12T07:06:26.379Z,9.25
2023-04-12T07:08:55.380Z,9.28
2023-04-12T07:11:25.426Z,9.36
2023-04-12T07:13:53.756Z,9.44
2023-04-12T07:16:22.171Z,9.50
2023-04-12T07:18:50.480Z,9.59
2023-04-12T07:21:18.964Z,9.64
2023-04-12T07:23:51.116Z,9.74
2023-04-12T07:26:19.823Z,9.79
2023-04-12T07:28:49.515Z,9.83
2023-04-12T07:31:17.926Z,9.89
2023-04-12T07:33:46.548Z,9.97
2023-04-12T07:36:16.637Z,10.03
2023-04-12T07:38:45.045Z,10.11
2023-04-12T07:41:13.510Z,10.15
2023-04-12T07:43:41.830Z,10.19
2023-04-12T07:46:11.580Z,10.22
2023-04-12T07:48:39.988Z,10.27
2023-04-12T07:51:12.750Z,10.32
2023-04-12T07:53:42.103Z,10.37
2023-04-12T07:56:10.841Z,10.46
2023-04-12T07:58:39.516Z,10.51
2023-04-12T08:01:08.416Z,10.56
2023-04-12T08:03:38.175Z,10.62
2023-04-12T08:06:07.958Z,10.68
2023-04-12T08:08:36.862Z,10.76
2023-04-12T08:11:06.476Z,10.77
2023-04-12T08:13:36.179Z,10.79
2023-04-12T08:16:04.857Z,10.84
2023-04-12T08:18:37.781Z,10.91
2023-04-12T08:21:06.805Z,10.90
2023-04-12T08:23:35.180Z,10.92
2023-04-12T08:26:04.210Z,10.99
2023-04-12T08:28:32.997Z,11.04
2023-04-12T08:31:01.418Z,11.05
2023-04-12T08:33:29.780Z,11.09
2023-04-12T08:35:59.948Z,11.15
2023-04-12T08:38:44.178Z,11.19
2023-04-12T08:41:15.051Z,11.27
2023-04-12T08:43:47.497Z,11.33
2023-04-12T08:46:17.133Z,11.31
2023-04-12T08:48:48.237Z,11.36
2023-04-12T08:51:20.194Z,11.39
2023-04-12T08:53:48.800Z,11.49
2023-04-12T08:56:18.334Z,11.51
2023-04-12T08:58:52.570Z,11.53
2023-04-12T09:01:22.415Z,11.60
2023-04-12T09:03:51.084Z,11.66
2023-04-12T09:06:20.929Z,11.76
2023-04-12T09:08:57.421Z,11.85
2023-04-12T09:11:28.674Z,11.92
2023-04-12T09:13:58.637Z,12.00
2023-04-12T09:16:38.132Z,12.00
2023-04-12T09:19:06.853Z,12.11
2023-04-12T09:21:37.826Z,12.21
2023-04-12T09:24:14.023Z,12.22
2023-04-12T09:26:43.043Z,12.27
2023-04-12T09:29:26.230Z,12.31
2023-04-12T09:32:02.788Z,12.27
2023-04-12T09:34:31.407Z,12.17
2023-04-12T09:37:01.106Z,12.16
2023-04-12T09:39:34.115Z,12.25
2023-04-12T09:42:25.038Z,12.26
2023-04-12T09:44:59.565Z,12.31
2023-04-12T09:47:42.179Z,12.29
2023-04-12T09:50:21.096Z,12.37
2023-04-12T09:52:53.310Z,12.35
2023-04-12T09:55:23.667Z,12.44
2023-04-12T09:57:53.958Z,12.43
2023-04-12T10:00:26.817Z,12.47
2023-04-12T10:02:57.545Z,12.50
2023-04-12T10:05:27.954Z,12.58
2023-04-12T10:07:58.346Z,12.55
2023-04-12T10:10:27.257Z,12.56
2023-04-12T10:12:55.890Z,12.59
2023-04-12T10:15:25.585Z,12.63
2023-04-12T10:17:58.042Z,12.67
2023-04-12T10:20:29.286Z,12.68
2023-04-12T10:23:00.673Z,12.65
2023-04-12T10:25:31.772Z,12.71
2023-04-12T10:28:16.014Z,12.72
2023-04-12T10:30:44.369Z,12.75
2023-04-12T10:33:17.926Z,12.82
2023-04-12T10:36:00.410Z,12.88
2023-04-12T10:38:35.342Z,12.90
2023-04-12T10:41:16.797Z,12.92
2023-04-12T10:43:46.398Z,12.91
2023-04-12T10:46:50.421Z,12.96
2023-04-12T10:49:19.935Z,13.01
2023-04-12T10:52:14.948Z,13.07
2023-04-12T10:54:44.841Z,13.06
2023-04-12T10:57:49.531Z,13.12
2023-04-12T11:00:18.622Z,13.14
2023-04-12T11:03:09.987Z,13.16
2023-04-12T11:06:12.576Z,13.23
2023-04-12T11:08:50.372Z,13.32
2023-04-12T11:11:23.289Z,13.41
2023-04-12T11:13:59.227Z,13.38
2023-04-12T11:16:27.675Z,13.49
2023-04-12T11:18:56.364Z,13.57
2023-04-12T11:21:26.677Z,13.59
2023-04-12T11:23:56.485Z,13.68
2023-04-12T11:26:26.258Z,13.73
2023-04-12T11:28:56.032Z,13.82
2023-04-12T11:31:24.871Z,13.87
2023-04-12T11:33:53.281Z,13.92
2023-04-12T11:36:24.674Z,14.00
2023-04-12T11:38:53.565Z,14.08
2023-04-12T11:41:21.892Z,14.11
2023-04-12T11:43:51.704Z,14.16
2023-04-12T11:46:20.818Z,14.20
2023-04-12T11:48:49.307Z,14.20
2023-04-12T11:51:22.343Z,14.25
2023-04-12T11:53:54.942Z,14.25
2023-04-12T11:56:23.935Z,14.28
2023-04-12T11:58:53.684Z,14.31
2023-04-12T12:01:23.895Z,14.33
2023-04-12T12:03:52.869Z,14.33
2023-04-12T12:06:21.801Z,14.37
2023-04-12T12:08:51.536Z,14.45
2023-04-12T12:11:21.535Z,14.46
2023-04-12T12:13:51.650Z,14.50
2023-04-12T12:16:27.923Z,14.53
2023-04-12T12:18:57.807Z,14.62
2023-04-12T12:21:27.809Z,14.67
2023-04-12T12:23:58.501Z,14.64
2023-04-12T12:26:29.162Z,14.68
2023-04-12T12:29:00.474Z,14.69
2023-04-12T12:31:30.831Z,14.73
2023-04-12T12:34:03.120Z,14.72
2023-04-12T12:36:33.538Z,14.76
2023-04-12T12:39:09.375Z,14.80
2023-04-12T12:41:38.233Z,14.81
2023-04-12T12:44:08.189Z,14.86
2023-04-12T12:49:09.377Z,14.84
2023-04-12T12:51:37.719Z,14.84
2023-04-12T12:54:07.732Z,14.89
2023-04-12T12:56:36.708Z,14.92
2023-04-12T12:59:05.535Z,14.97
2023-04-12T13:01:33.983Z,15.04
2023-04-12T13:04:03.791Z,15.05
2023-04-12T13:06:32.365Z,15.11
2023-04-12T13:09:01.029Z,15.17
2023-04-12T13:11:29.460Z,15.21
2023-04-12T13:13:57.683Z,15.21
2023-04-12T13:16:27.090Z,15.24
2023-04-12T13:18:55.863Z,15.22
2023-04-12T13:21:27.257Z,15.20
2023-04-12T13:23:55.523Z,15.18
2023-04-12T13:26:25.676Z,15.17
2023-04-12T13:28:54.075Z,15.20
2023-04-12T13:31:22.474Z,15.28
2023-04-12T13:33:50.815Z,15.29
2023-04-12T13:36:19.165Z,15.35
2023-04-12T13:38:48.862Z,15.35
2023-04-12T13:41:17.172Z,15.42
2023-04-12T13:43:45.413Z,15.41
2023-04-12T13:46:13.812Z,15.35
2023-04-12T13:48:42.739Z,15.41
2023-04-12T13:51:11.330Z,15.44
2023-04-12T13:53:39.566Z,15.40
2023-04-12T13:56:10.740Z,15.45
2023-04-12T13:58:39.949Z,15.47
2023-04-12T14:01:08.593Z,15.48
2023-04-12T14:03:37.516Z,15.49
2023-04-12T14:06:06.328Z,15.51
2023-04-12T14:08:35.101Z,15.51
2023-04-12T14:11:04.474Z,15.53
2023-04-12T14:13:37.546Z,15.52
2023-04-12T14:16:07.657Z,15.55
2023-04-12T14:18:36.137Z,15.55
2023-04-12T14:21:04.821Z,15.56
2023-04-12T14:23:33.451Z,15.56
2023-04-12T14:26:01.801Z,15.56
2023-04-12T14:28:31.084Z,15.57
2023-04-12T14:31:03.570Z,15.59
2023-04-12T14:33:33.267Z,15.61
2023-04-12T14:36:05.097Z,15.66
2023-04-12T14:38:33.598Z,15.72
2023-04-12T14:41:02.187Z,15.80
2023-04-12T14:43:30.468Z,15.86
2023-04-12T14:46:00.223Z,15.91
2023-04-12T14:48:28.578Z,15.93
2023-04-12T14:50:56.843Z,15.95
2023-04-12T14:53:28.143Z,15.99
2023-04-12T14:55:56.427Z,16.02
2023-04-12T14:58:25.506Z,16.01
2023-04-12T15:00:53.941Z,16.01
2023-04-12T15:03:23.739Z,16.01
2023-04-12T15:05:52.078Z,16.02
2023-04-12T15:08:20.468Z,16.12
2023-04-12T15:10:48.777Z,16.17
2023-04-12T15:13:17.335Z,16.26
2023-04-12T15:15:47.473Z,16.29
2023-04-12T15:18:16.536Z,16.32
2023-04-12T15:20:46.354Z,16.34
2023-04-12T15:23:15.777Z,16.35
2023-04-12T15:25:44.328Z,16.41
2023-04-12T15:28:12.644Z,16.45
2023-04-12T15:30:41.008Z,16.51
2023-04-12T15:33:09.359Z,16.56
2023-04-12T15:35:37.743Z,16.55
2023-04-12T15:38:08.055Z,16.59
2023-04-12T15:40:36.616Z,16.63
2023-04-12T15:43:05.006Z,16.64
2023-04-12T15:48:01.808Z,16.68
2023-04-12T15:50:30.168Z,16.71
2023-04-12T15:52:59.669Z,16.71
2023-04-12T15:55:29.402Z,16.75
2023-04-12T15:57:58.076Z,16.76
2023-04-12T16:00:27.622Z,16.79
2023-04-12T16:02:57.328Z,16.84
2023-04-12T16:05:26.732Z,16.84
2023-04-12T16:07:56.689Z,16.90
2023-04-12T16:10:25.473Z,16.92
2023-04-12T16:12:57.388Z,16.93
2023-04-12T16:15:25.882Z,16.93
2023-04-12T16:17:55.753Z,16.95
2023-04-12T16:20:24.982Z,16.98
2023-04-12T16:22:55.320Z,16.99
2023-04-12T16:25:25.297Z,16.98
2023-04-12T16:27:55.738Z,16.97
2023-04-12T16:30:25.609Z,16.96
2023-04-12T16:32:54.006Z,16.96
2023-04-12T16:35:22.421Z,16.96
2023-04-12T16:37:50.881Z,16.95
2023-04-12T16:40:19.444Z,16.97
2023-04-12T16:42:47.784Z,16.95
2023-04-12T16:45:17.853Z,16.95
2023-04-12T16:47:48.086Z,16.93
2023-04-12T16:50:16.758Z,16.94
2023-04-12T16:52:45.141Z,16.91
2023-04-12T16:55:14.267Z,16.93
2023-04-12T16:57:44.404Z,16.92
2023-04-12T17:00:21.189Z,16.93
2023-04-12T17:02:51.663Z,16.93
2023-04-12T17:05:21.372Z,16.93
2023-04-12T17:07:53.981Z,16.93
2023-04-12T17:10:24.731Z,16.93
2023-04-12T17:12:55.133Z,16.91
2023-04-12T17:15:28.507Z,16.89
2023-04-12T17:18:03.084Z,16.88
2023-04-12T17:20:32.351Z,16.87
2023-04-12T17:23:01.048Z,16.87
2023-04-12T17:25:31.595Z,16.81
2023-04-12T17:28:00.549Z,16.81
2023-04-12T17:30:30.900Z,16.79
2023-04-12T17:33:01.406Z,16.77
2023-04-12T17:35:30.533Z,16.73
2023-04-12T17:37:58.965Z,16.70
2023-04-12T17:40:28.026Z,16.68
2023-04-12T17:42:56.442Z,16.65
2023-04-12T17:45:25.245Z,16.60
2023-04-12T17:47:55.695Z,16.54
2023-04-12T17:50:26.052Z,16.50
2023-04-12T17:52:55.406Z,16.44
2023-04-12T17:55:25.846Z,16.39
2023-04-12T17:57:57.347Z,16.34
2023-04-12T18:00:26.592Z,16.27
2023-04-12T18:02:56.589Z,16.20
2023-04-12T18:05:25.376Z,16.15
2023-04-12T18:07:59.628Z,16.07
2023-04-12T18:10:28.050Z,15.99
2023-04-12T18:12:56.461Z,15.92
2023-04-12T18:15:24.878Z,15.86
2023-04-12T18:17:53.417Z,15.81
2023-04-12T18:20:24.031Z,15.73
2023-04-12T18:23:01.546Z,15.66
2023-04-12T18:25:29.922Z,15.62
2023-04-12T18:27:59.121Z,15.55
2023-04-12T18:30:27.584Z,15.52
2023-04-12T18:32:56.015Z,15.48
2023-04-12T18:35:25.901Z,15.44
2023-04-12T18:37:54.363Z,15.39
2023-04-12T18:40:23.667Z,15.33
2023-04-12T18:42:52.072Z,15.28
2023-04-12T18:45:22.777Z,15.24
2023-04-12T18:47:53.875Z,15.18
2023-04-12T18:50:23.446Z,15.13
2023-04-12T18:52:58.310Z,15.06
2023-04-12T18:55:26.682Z,15.01
2023-04-12T18:57:55.111Z,14.97
2023-04-12T19:00:23.590Z,14.94
2023-04-12T19:02:51.918Z,14.88
2023-04-12T19:05:21.663Z,14.84
2023-04-12T19:07:50.104Z,14.78
2023-04-12T19:10:19.815Z,14.75
2023-04-12T19:12:48.107Z,14.73
2023-04-12T19:15:16.401Z,14.72
2023-04-12T19:17:44.757Z,14.71
2023-04-12T19:20:13.466Z,14.71
2023-04-12T19:22:41.765Z,14.67
2023-04-12T19:25:11.035Z,14.59
2023-04-12T19:27:43.385Z,14.57
2023-04-12T19:30:13.071Z,14.60
2023-04-12T19:32:42.821Z,14.52
2023-04-12T19:35:11.482Z,14.52
2023-04-12T19:37:42.776Z,14.52
2023-04-12T19:40:13.754Z,14.49
2023-04-12T19:42:44.125Z,14.50
2023-04-12T19:45:12.632Z,14.52
2023-04-12T19:47:44.834Z,14.50
2023-04-12T19:50:15.020Z,14.48
2023-04-12T19:52:43.854Z,14.42
2023-04-12T19:55:12.701Z,14.40
2023-04-12T19:57:43.129Z,14.36
2023-04-12T20:00:15.477Z,14.35
2023-04-12T20:02:43.799Z,14.37
2023-04-12T20:05:12.550Z,14.43
2023-04-12T20:07:40.807Z,14.48
2023-04-12T20:10:11.011Z,14.55
2023-04-12T20:12:40.253Z,14.60
2023-04-12T20:15:12.670Z,14.64
2023-04-12T20:17:42.454Z,14.66
2023-04-12T20:20:14.141Z,14.65
2023-04-12T20:22:44.006Z,14.67
2023-04-12T20:25:13.074Z,14.67
2023-04-12T20:27:41.508Z,14.68
2023-04-12T20:30:17.657Z,14.69
2023-04-12T20:32:46.142Z,14.68
2023-04-12T20:35:15.316Z,14.69
2023-04-12T20:37:43.638Z,14.68
2023-04-12T20:40:13.438Z,14.65
2023-04-12T20:42:42.480Z,14.66
2023-04-12T20:45:14.006Z,14.66
2023-04-12T20:47:42.333Z,14.65
2023-04-12T20:50:11.390Z,14.63
2023-04-12T20:52:40.388Z,14.63
2023-04-12T20:55:10.656Z,14.61
2023-04-12T20:57:41.836Z,14.59
2023-04-12T21:00:18.008Z,14.59
2023-04-12T21:02:48.803Z,14.56
2023-04-12T21:05:17.607Z,14.53
2023-04-12T21:07:46.897Z,14.49
2023-04-12T21:10:16.426Z,14.47
2023-04-12T21:12:45.086Z,14.43
2023-04-12T21:15:21.759Z,14.39
2023-04-12T21:17:54.686Z,14.35
2023-04-12T21:20:25.510Z,14.31
2023-04-12T21:22:53.828Z,14.26
2023-04-12T21:25:22.870Z,14.23
2023-04-12T21:27:51.382Z,14.18
2023-04-12T21:30:24.127Z,14.12
2023-04-12T21:32:53.674Z,14.09
2023-04-12T21:35:22.811Z,14.05
2023-04-12T21:37:52.347Z,14.02
2023-04-12T21:40:20.797Z,13.99
2023-04-12T21:42:49.067Z,13.97
2023-04-12T21:45:17.591Z,13.95
2023-04-12T21:47:52.771Z,13.93
2023-04-12T21:50:23.568Z,13.90
2023-04-12T21:52:51.868Z,13.89
2023-04-12T21:55:20.175Z,13.88
2023-04-12T21:57:51.289Z,13.87
2023-04-12T22:00:19.847Z,13.86
2023-04-12T22:02:49.713Z,13.84
2023-04-12T22:05:18.212Z,13.82
2023-04-12T22:07:47.664Z,13.81
2023-04-12T22:10:16.234Z,13.78
2023-04-12T22:12:50.532Z,13.78
2023-04-12T22:15:19.602Z,13.74
2023-04-12T22:17:49.940Z,13.70
2023-04-12T22:20:18.756Z,13.66
2023-04-12T22:22:47.063Z,13.64
2023-04-12T22:25:15.859Z,13.63
2023-04-12T22:27:46.715Z,13.62
2023-04-12T22:30:15.839Z,13.60
2023-04-12T22:32:47.272Z,13.59
2023-04-12T22:35:17.637Z,13.57
2023-04-12T22:37:46.105Z,13.56
2023-04-12T22:40:14.826Z,13.52
2023-04-12T22:42:46.563Z,13.49
2023-04-12T22:45:21.741Z,13.45
2023-04-12T22:47:57.601Z,13.41
2023-04-12T22:50:27.296Z,13.36
2023-04-12T22:53:02.960Z,13.32
2023-04-12T22:55:31.475Z,13.30
2023-04-12T22:58:04.936Z,13.27
2023-04-12T23:00:35.189Z,13.22
2023-04-12T23:03:04.377Z,13.19
2023-04-12T23:05:34.276Z,13.16
2023-04-12T23:08:02.555Z,13.14
2023-04-12T23:10:33.836Z,13.13
2023-04-12T23:13:03.317Z,13.09
2023-04-12T23:15:31.687Z,13.10
2023-04-12T23:18:08.954Z,13.08
2023-04-12T23:20:40.250Z,13.07
2023-04-12T23:23:08.693Z,13.04
2023-04-12T23:25:41.191Z,13.03
2023-04-12T23:28:15.652Z,13.00
2023-04-12T23:30:47.849Z,13.00
2023-04-12T23:33:18.166Z,12.97
2023-04-12T23:35:52.436Z,12.96
2023-04-12T23:38:31.914Z,12.95
2023-04-12T23:41:02.242Z,12.92
2023-04-12T23:43:32.394Z,12.89
2023-04-12T23:46:01.427Z,12.86
2023-04-12T23:48:30.422Z,12.84
2023-04-12T23:51:01.624Z,12.81
2023-04-12T23:53:29.996Z,12.76
2023-04-12T23:55:58.522Z,12.69
2023-04-12T23:58:27.147Z,12.65
